sensor_id;sensor_type;location;lat;lon;timestamp;pressure;altitude;pressure_sealevel;temperature;humidity
50636;BME280;36598;46.054;11.130;2023-05-03T00:00:05;99516.56;;;14.17;77.49
50636;BME280;36598;46.054;11.130;2023-05-03T00:02:33;99510.50;;;13.86;78.11
50636;BME280;36598;46.054;11.130;2023-05-03T00:04:59;99510.00;;;13.71;78.41
50636;BME280;36598;46.054;11.130;2023-05-03T00:07:25;99511.84;;;13.77;78.52
50636;BME280;36598;46.054;11.130;2023-05-03T00:09:50;99508.34;;;13.73;77.05
50636;BME280;36598;46.054;11.130;2023-05-03T00:12:16;99511.47;;;13.36;79.19
50636;BME280;36598;46.054;11.130;2023-05-03T00:14:41;99504.91;;;13.26;79.85
50636;BME280;36598;46.054;11.130;2023-05-03T00:17:07;99506.66;;;13.60;78.12
50636;BME280;36598;46.054;11.130;2023-05-03T00:19:32;99511.78;;;13.61;77.87
50636;BME280;36598;46.054;11.130;2023-05-03T00:21:59;99507.66;;;13.69;77.32
50636;BME280;36598;46.054;11.130;2023-05-03T00:24:25;99505.94;;;13.75;76.94
50636;BME280;36598;46.054;11.130;2023-05-03T00:26:50;99503.75;;;13.67;77.42
50636;BME280;36598;46.054;11.130;2023-05-03T00:29:16;99502.66;;;13.81;76.40
50636;BME280;36598;46.054;11.130;2023-05-03T00:31:43;99499.44;;;13.82;76.92
50636;BME280;36598;46.054;11.130;2023-05-03T00:34:08;99501.78;;;13.44;78.38
50636;BME280;36598;46.054;11.130;2023-05-03T00:36:33;99501.50;;;13.38;79.02
50636;BME280;36598;46.054;11.130;2023-05-03T00:38:59;99505.16;;;13.55;78.56
50636;BME280;36598;46.054;11.130;2023-05-03T00:41:25;99501.66;;;13.51;79.41
50636;BME280;36598;46.054;11.130;2023-05-03T00:43:50;99498.88;;;13.51;79.46
50636;BME280;36598;46.054;11.130;2023-05-03T00:46:16;99499.09;;;13.60;78.96
50636;BME280;36598;46.054;11.130;2023-05-03T00:48:41;99497.47;;;13.63;79.49
50636;BME280;36598;46.054;11.130;2023-05-03T00:51:06;99501.06;;;13.40;79.09
50636;BME280;36598;46.054;11.130;2023-05-03T00:53:32;99498.47;;;12.86;81.11
50636;BME280;36598;46.054;11.130;2023-05-03T00:55:58;99494.97;;;13.28;79.95
50636;BME280;36598;46.054;11.130;2023-05-03T00:58:25;99498.03;;;13.11;80.83
50636;BME280;36598;46.054;11.130;2023-05-03T01:00:50;99504.72;;;13.37;79.07
50636;BME280;36598;46.054;11.130;2023-05-03T01:03:16;99496.97;;;13.28;79.38
50636;BME280;36598;46.054;11.130;2023-05-03T01:06:00;99490.06;;;13.13;80.64
50636;BME280;36598;46.054;11.130;2023-05-03T01:08:36;99495.47;;;13.23;80.13
50636;BME280;36598;46.054;11.130;2023-05-03T01:11:06;99491.09;;;13.22;79.52
50636;BME280;36598;46.054;11.130;2023-05-03T01:16:21;99490.91;;;13.33;78.15
50636;BME280;36598;46.054;11.130;2023-05-03T01:18:48;99478.53;;;12.91;78.86
50636;BME280;36598;46.054;11.130;2023-05-03T01:21:15;99485.13;;;13.24;78.68
50636;BME280;36598;46.054;11.130;2023-05-03T01:26:14;99484.34;;;13.00;78.51
50636;BME280;36598;46.054;11.130;2023-05-03T01:28:40;99481.09;;;12.82;79.82
50636;BME280;36598;46.054;11.130;2023-05-03T01:31:05;99483.81;;;12.85;78.67
50636;BME280;36598;46.054;11.130;2023-05-03T01:36:30;99475.38;;;12.89;78.51
50636;BME280;36598;46.054;11.130;2023-05-03T01:39:09;99485.00;;;13.08;76.90
50636;BME280;36598;46.054;11.130;2023-05-03T01:41:36;99487.47;;;13.25;77.21
50636;BME280;36598;46.054;11.130;2023-05-03T01:44:04;99492.91;;;12.86;77.25
50636;BME280;36598;46.054;11.130;2023-05-03T01:46:30;99488.94;;;12.87;77.98
50636;BME280;36598;46.054;11.130;2023-05-03T01:48:56;99484.88;;;12.91;77.82
50636;BME280;36598;46.054;11.130;2023-05-03T01:51:21;99487.34;;;13.09;78.09
50636;BME280;36598;46.054;11.130;2023-05-03T01:53:46;99488.50;;;13.12;77.92
50636;BME280;36598;46.054;11.130;2023-05-03T01:56:12;99490.31;;;12.98;77.77
50636;BME280;36598;46.054;11.130;2023-05-03T01:58:37;99495.09;;;12.98;77.68
50636;BME280;36598;46.054;11.130;2023-05-03T02:01:03;99494.53;;;12.83;78.68
50636;BME280;36598;46.054;11.130;2023-05-03T02:03:30;99504.06;;;12.59;80.12
50636;BME280;36598;46.054;11.130;2023-05-03T02:05:55;99497.94;;;12.94;78.21
50636;BME280;36598;46.054;11.130;2023-05-03T02:08:20;99489.28;;;13.12;77.63
50636;BME280;36598;46.054;11.130;2023-05-03T02:10:46;99494.16;;;13.04;78.35
50636;BME280;36598;46.054;11.130;2023-05-03T02:13:11;99495.56;;;12.93;78.12
50636;BME280;36598;46.054;11.130;2023-05-03T02:15:37;99498.97;;;12.81;79.68
50636;BME280;36598;46.054;11.130;2023-05-03T02:18:02;99495.72;;;13.06;78.87
50636;BME280;36598;46.054;11.130;2023-05-03T02:20:28;99499.84;;;12.97;78.89
50636;BME280;36598;46.054;11.130;2023-05-03T02:22:56;99501.81;;;13.20;78.05
50636;BME280;36598;46.054;11.130;2023-05-03T02:25:22;99499.78;;;13.01;77.88
50636;BME280;36598;46.054;11.130;2023-05-03T02:27:47;99505.59;;;12.87;78.66
50636;BME280;36598;46.054;11.130;2023-05-03T02:30:12;99497.81;;;12.78;78.62
50636;BME280;36598;46.054;11.130;2023-05-03T02:32:38;99505.47;;;12.70;79.74
50636;BME280;36598;46.054;11.130;2023-05-03T02:35:03;99499.97;;;12.90;78.45
50636;BME280;36598;46.054;11.130;2023-05-03T02:37:29;99500.72;;;12.94;78.00
50636;BME280;36598;46.054;11.130;2023-05-03T02:39:54;99507.28;;;12.81;79.03
50636;BME280;36598;46.054;11.130;2023-05-03T02:42:19;99496.78;;;12.92;78.98
50636;BME280;36598;46.054;11.130;2023-05-03T02:44:45;99503.00;;;12.99;78.56
50636;BME280;36598;46.054;11.130;2023-05-03T02:47:10;99506.44;;;12.84;78.82
50636;BME280;36598;46.054;11.130;2023-05-03T02:49:35;99511.44;;;12.92;78.67
50636;BME280;36598;46.054;11.130;2023-05-03T02:52:01;99511.16;;;12.87;78.98
50636;BME280;36598;46.054;11.130;2023-05-03T02:54:26;99510.63;;;12.72;79.27
50636;BME280;36598;46.054;11.130;2023-05-03T02:56:51;99509.03;;;12.94;77.56
50636;BME280;36598;46.054;11.130;2023-05-03T02:59:16;99516.94;;;12.72;77.69
50636;BME280;36598;46.054;11.130;2023-05-03T03:01:42;99510.25;;;12.93;78.30
50636;BME280;36598;46.054;11.130;2023-05-03T03:04:08;99506.44;;;13.07;77.38
50636;BME280;36598;46.054;11.130;2023-05-03T03:06:33;99506.00;;;13.09;76.45
50636;BME280;36598;46.054;11.130;2023-05-03T03:08:58;99502.94;;;13.03;76.38
50636;BME280;36598;46.054;11.130;2023-05-03T03:11:24;99505.22;;;13.08;76.40
50636;BME280;36598;46.054;11.130;2023-05-03T03:13:49;99504.56;;;13.00;74.36
50636;BME280;36598;46.054;11.130;2023-05-03T03:16:14;99507.50;;;13.13;74.65
50636;BME280;36598;46.054;11.130;2023-05-03T03:18:39;99518.25;;;12.88;74.49
50636;BME280;36598;46.054;11.130;2023-05-03T03:21:05;99521.28;;;13.20;73.17
50636;BME280;36598;46.054;11.130;2023-05-03T03:23:30;99521.66;;;12.99;69.67
50636;BME280;36598;46.054;11.130;2023-05-03T03:25:55;99532.72;;;13.02;70.06
50636;BME280;36598;46.054;11.130;2023-05-03T03:28:21;99523.69;;;13.18;70.15
50636;BME280;36598;46.054;11.130;2023-05-03T03:30:46;99524.88;;;13.17;70.50
50636;BME280;36598;46.054;11.130;2023-05-03T03:33:11;99525.72;;;13.14;70.03
50636;BME280;36598;46.054;11.130;2023-05-03T03:35:37;99529.38;;;13.35;70.29
50636;BME280;36598;46.054;11.130;2023-05-03T03:38:03;99530.38;;;13.24;70.92
50636;BME280;36598;46.054;11.130;2023-05-03T03:40:28;99530.44;;;13.17;71.00
50636;BME280;36598;46.054;11.130;2023-05-03T03:42:53;99533.16;;;13.21;70.77
50636;BME280;36598;46.054;11.130;2023-05-03T03:45:19;99538.88;;;13.37;69.53
50636;BME280;36598;46.054;11.130;2023-05-03T03:47:44;99538.97;;;13.30;69.58
50636;BME280;36598;46.054;11.130;2023-05-03T03:50:09;99545.00;;;13.01;69.36
50636;BME280;36598;46.054;11.130;2023-05-03T03:52:34;99541.41;;;13.28;68.31
50636;BME280;36598;46.054;11.130;2023-05-03T03:55:00;99548.28;;;13.20;66.81
50636;BME280;36598;46.054;11.130;2023-05-03T03:57:25;99554.66;;;13.17;66.90
50636;BME280;36598;46.054;11.130;2023-05-03T03:59:54;99553.59;;;13.11;65.74
50636;BME280;36598;46.054;11.130;2023-05-03T04:02:19;99548.28;;;12.96;65.61
50636;BME280;36598;46.054;11.130;2023-05-03T04:04:45;99552.69;;;13.17;65.50
50636;BME280;36598;46.054;11.130;2023-05-03T04:07:11;99554.75;;;12.90;65.02
50636;BME280;36598;46.054;11.130;2023-05-03T04:09:36;99554.75;;;12.90;65.42
50636;BME280;36598;46.054;11.130;2023-05-03T04:12:01;99551.41;;;13.22;65.24
50636;BME280;36598;46.054;11.130;2023-05-03T04:14:27;99561.16;;;13.34;64.38
50636;BME280;36598;46.054;11.130;2023-05-03T04:16:53;99566.88;;;12.99;64.59
50636;BME280;36598;46.054;11.130;2023-05-03T04:19:18;99562.09;;;13.00;64.47
50636;BME280;36598;46.054;11.130;2023-05-03T04:21:46;99562.94;;;12.97;64.55
50636;BME280;36598;46.054;11.130;2023-05-03T04:24:13;99570.53;;;12.93;65.56
50636;BME280;36598;46.054;11.130;2023-05-03T04:26:39;99574.47;;;13.19;65.66
50636;BME280;36598;46.054;11.130;2023-05-03T04:29:05;99580.56;;;13.10;65.20
50636;BME280;36598;46.054;11.130;2023-05-03T04:31:31;99586.72;;;13.25;64.35
50636;BME280;36598;46.054;11.130;2023-05-03T04:33:56;99580.00;;;13.46;63.74
50636;BME280;36598;46.054;11.130;2023-05-03T04:36:22;99581.69;;;13.40;62.78
50636;BME280;36598;46.054;11.130;2023-05-03T04:38:50;99592.69;;;13.47;62.41
50636;BME280;36598;46.054;11.130;2023-05-03T04:41:15;99592.34;;;13.45;61.24
50636;BME280;36598;46.054;11.130;2023-05-03T04:43:41;99600.66;;;13.45;61.29
50636;BME280;36598;46.054;11.130;2023-05-03T04:46:07;99600.41;;;13.59;60.41
50636;BME280;36598;46.054;11.130;2023-05-03T04:48:33;99603.19;;;13.36;59.36
50636;BME280;36598;46.054;11.130;2023-05-03T04:51:00;99605.50;;;13.41;59.29
50636;BME280;36598;46.054;11.130;2023-05-03T04:53:25;99596.69;;;13.46;58.97
50636;BME280;36598;46.054;11.130;2023-05-03T04:55:51;99609.34;;;13.47;59.35
50636;BME280;36598;46.054;11.130;2023-05-03T04:58:16;99616.00;;;13.30;60.41
50636;BME280;36598;46.054;11.130;2023-05-03T05:00:41;99612.25;;;13.40;60.37
50636;BME280;36598;46.054;11.130;2023-05-03T05:03:07;99612.97;;;13.44;59.41
50636;BME280;36598;46.054;11.130;2023-05-03T05:05:32;99613.34;;;13.46;59.53
50636;BME280;36598;46.054;11.130;2023-05-03T05:07:58;99621.56;;;13.53;58.27
50636;BME280;36598;46.054;11.130;2023-05-03T05:10:23;99604.84;;;13.76;58.79
50636;BME280;36598;46.054;11.130;2023-05-03T05:12:48;99615.69;;;13.91;56.94
50636;BME280;36598;46.054;11.130;2023-05-03T05:15:14;99620.56;;;14.07;55.70
50636;BME280;36598;46.054;11.130;2023-05-03T05:17:39;99617.69;;;14.10;57.16
50636;BME280;36598;46.054;11.130;2023-05-03T05:20:05;99616.19;;;13.86;58.58
50636;BME280;36598;46.054;11.130;2023-05-03T05:22:31;99625.25;;;14.10;58.86
50636;BME280;36598;46.054;11.130;2023-05-03T05:24:57;99626.19;;;14.23;59.26
50636;BME280;36598;46.054;11.130;2023-05-03T05:27:22;99626.41;;;14.52;59.44
50636;BME280;36598;46.054;11.130;2023-05-03T05:29:48;99624.06;;;14.47;60.81
50636;BME280;36598;46.054;11.130;2023-05-03T05:32:13;99634.31;;;14.53;58.30
50636;BME280;36598;46.054;11.130;2023-05-03T05:34:39;99635.66;;;14.25;57.95
50636;BME280;36598;46.054;11.130;2023-05-03T05:37:04;99639.72;;;14.41;57.50
50636;BME280;36598;46.054;11.130;2023-05-03T05:39:30;99639.66;;;14.44;56.83
50636;BME280;36598;46.054;11.130;2023-05-03T05:41:55;99648.50;;;14.95;55.74
50636;BME280;36598;46.054;11.130;2023-05-03T05:44:20;99644.00;;;14.25;55.90
50636;BME280;36598;46.054;11.130;2023-05-03T05:46:46;99645.44;;;14.90;54.28
50636;BME280;36598;46.054;11.130;2023-05-03T05:49:11;99643.72;;;15.45;52.85
50636;BME280;36598;46.054;11.130;2023-05-03T05:51:36;99646.75;;;15.67;52.79
50636;BME280;36598;46.054;11.130;2023-05-03T05:54:02;99646.34;;;15.36;51.36
50636;BME280;36598;46.054;11.130;2023-05-03T05:56:27;99647.56;;;15.35;50.35
50636;BME280;36598;46.054;11.130;2023-05-03T05:58:52;99652.59;;;15.72;49.64
50636;BME280;36598;46.054;11.130;2023-05-03T06:01:18;99647.94;;;16.66;48.66
50636;BME280;36598;46.054;11.130;2023-05-03T06:03:43;99648.47;;;16.90;47.37
50636;BME280;36598;46.054;11.130;2023-05-03T06:06:08;99642.06;;;15.93;48.31
50636;BME280;36598;46.054;11.130;2023-05-03T06:08:34;99643.63;;;16.10;48.66
50636;BME280;36598;46.054;11.130;2023-05-03T06:11:00;99642.22;;;16.44;47.89
50636;BME280;36598;46.054;11.130;2023-05-03T06:13:25;99649.69;;;16.76;46.76
50636;BME280;36598;46.054;11.130;2023-05-03T06:15:51;99650.59;;;16.86;47.12
50636;BME280;36598;46.054;11.130;2023-05-03T06:18:16;99648.41;;;16.64;47.18
50636;BME280;36598;46.054;11.130;2023-05-03T06:20:42;99648.78;;;16.24;48.07
50636;BME280;36598;46.054;11.130;2023-05-03T06:23:07;99639.84;;;16.30;47.47
50636;BME280;36598;46.054;11.130;2023-05-03T06:25:33;99645.47;;;16.42;47.24
50636;BME280;36598;46.054;11.130;2023-05-03T06:28:00;99651.88;;;17.45;45.49
50636;BME280;36598;46.054;11.130;2023-05-03T06:30:25;99650.50;;;17.62;44.69
50636;BME280;36598;46.054;11.130;2023-05-03T06:32:52;99644.56;;;16.74;45.04
50636;BME280;36598;46.054;11.130;2023-05-03T06:35:17;99648.13;;;17.00;45.83
50636;BME280;36598;46.054;11.130;2023-05-03T06:37:43;99651.88;;;17.45;44.76
50636;BME280;36598;46.054;11.130;2023-05-03T06:40:09;99651.41;;;17.94;43.50
50636;BME280;36598;46.054;11.130;2023-05-03T06:42:35;99651.41;;;18.82;42.40
50636;BME280;36598;46.054;11.130;2023-05-03T06:45:00;99650.25;;;18.48;42.13
50636;BME280;36598;46.054;11.130;2023-05-03T06:47:25;99650.47;;;18.85;42.95
50636;BME280;36598;46.054;11.130;2023-05-03T06:49:51;99647.53;;;19.38;42.22
50636;BME280;36598;46.054;11.130;2023-05-03T06:52:16;99639.97;;;19.75;40.29
50636;BME280;36598;46.054;11.130;2023-05-03T06:54:42;99643.25;;;20.01;40.48
50636;BME280;36598;46.054;11.130;2023-05-03T06:57:07;99631.22;;;19.73;39.69
50636;BME280;36598;46.054;11.130;2023-05-03T06:59:34;99642.31;;;19.95;41.17
50636;BME280;36598;46.054;11.130;2023-05-03T07:01:59;99648.84;;;20.19;38.96
50636;BME280;36598;46.054;11.130;2023-05-03T07:04:25;99637.28;;;20.54;38.03
50636;BME280;36598;46.054;11.130;2023-05-03T07:06:50;99643.50;;;20.58;37.91
50636;BME280;36598;46.054;11.130;2023-05-03T07:09:16;99632.56;;;20.69;37.32
50636;BME280;36598;46.054;11.130;2023-05-03T07:11:42;99628.34;;;21.07;36.92
50636;BME280;36598;46.054;11.130;2023-05-03T07:14:13;99631.81;;;21.26;36.51
50636;BME280;36598;46.054;11.130;2023-05-03T07:16:39;99632.03;;;19.92;37.31
50636;BME280;36598;46.054;11.130;2023-05-03T07:19:04;99633.00;;;20.77;37.48
50636;BME280;36598;46.054;11.130;2023-05-03T07:21:29;99626.69;;;21.24;36.38
50636;BME280;36598;46.054;11.130;2023-05-03T07:23:55;99625.38;;;21.01;36.26
50636;BME280;36598;46.054;11.130;2023-05-03T07:26:21;99621.56;;;21.47;36.51
50636;BME280;36598;46.054;11.130;2023-05-03T07:28:46;99617.97;;;21.46;36.04
50636;BME280;36598;46.054;11.130;2023-05-03T07:31:12;99620.50;;;21.83;35.67
50636;BME280;36598;46.054;11.130;2023-05-03T07:33:37;99616.28;;;21.40;34.89
50636;BME280;36598;46.054;11.130;2023-05-03T07:36:03;99610.16;;;22.04;34.41
50636;BME280;36598;46.054;11.130;2023-05-03T07:38:29;99606.31;;;22.31;34.26
50636;BME280;36598;46.054;11.130;2023-05-03T07:40:54;99608.22;;;22.69;33.69
50636;BME280;36598;46.054;11.130;2023-05-03T07:43:20;99616.47;;;22.88;33.45
50636;BME280;36598;46.054;11.130;2023-05-03T07:45:47;99611.38;;;22.27;34.21
50636;BME280;36598;46.054;11.130;2023-05-03T07:48:12;99610.84;;;22.73;33.21
50636;BME280;36598;46.054;11.130;2023-05-03T07:50:40;99618.94;;;22.65;33.79
50636;BME280;36598;46.054;11.130;2023-05-03T07:53:05;99612.03;;;22.52;33.67
50636;BME280;36598;46.054;11.130;2023-05-03T07:55:31;99599.78;;;23.19;33.38
50636;BME280;36598;46.054;11.130;2023-05-03T07:57:57;99598.13;;;23.68;32.33
50636;BME280;36598;46.054;11.130;2023-05-03T08:00:23;99602.06;;;22.86;32.70
50636;BME280;36598;46.054;11.130;2023-05-03T08:02:49;99584.03;;;23.94;32.02
50636;BME280;36598;46.054;11.130;2023-05-03T08:05:14;99597.06;;;23.86;30.90
50636;BME280;36598;46.054;11.130;2023-05-03T08:07:40;99591.78;;;23.73;31.58
50636;BME280;36598;46.054;11.130;2023-05-03T08:10:06;99585.78;;;23.66;31.13
50636;BME280;36598;46.054;11.130;2023-05-03T08:12:32;99595.06;;;21.92;33.50
50636;BME280;36598;46.054;11.130;2023-05-03T08:14:58;99586.25;;;22.73;33.04
50636;BME280;36598;46.054;11.130;2023-05-03T08:17:23;99580.94;;;23.31;32.17
50636;BME280;36598;46.054;11.130;2023-05-03T08:19:49;99580.09;;;23.86;31.16
50636;BME280;36598;46.054;11.130;2023-05-03T08:22:14;99578.91;;;23.52;31.86
50636;BME280;36598;46.054;11.130;2023-05-03T08:24:40;99572.22;;;23.96;31.75
50636;BME280;36598;46.054;11.130;2023-05-03T08:27:06;99565.03;;;24.47;31.36
50636;BME280;36598;46.054;11.130;2023-05-03T08:29:32;99576.56;;;24.43;31.40
50636;BME280;36598;46.054;11.130;2023-05-03T08:31:57;99570.44;;;24.51;30.51
50636;BME280;36598;46.054;11.130;2023-05-03T08:34:23;99569.31;;;24.68;29.96
50636;BME280;36598;46.054;11.130;2023-05-03T08:36:49;99565.47;;;24.40;30.28
50636;BME280;36598;46.054;11.130;2023-05-03T08:39:14;99555.94;;;24.37;30.49
50636;BME280;36598;46.054;11.130;2023-05-03T08:41:40;99558.25;;;24.39;30.67
50636;BME280;36598;46.054;11.130;2023-05-03T08:44:06;99562.94;;;24.42;30.95
50636;BME280;36598;46.054;11.130;2023-05-03T08:46:32;99554.22;;;24.83;29.75
50636;BME280;36598;46.054;11.130;2023-05-03T08:49:01;99553.00;;;24.95;29.75
50636;BME280;36598;46.054;11.130;2023-05-03T08:51:26;99559.16;;;24.56;29.53
50636;BME280;36598;46.054;11.130;2023-05-03T08:53:52;99553.59;;;24.67;29.98
50636;BME280;36598;46.054;11.130;2023-05-03T08:58:52;99551.50;;;25.05;29.03
50636;BME280;36598;46.054;11.130;2023-05-03T09:01:18;99551.97;;;25.35;27.71
50636;BME280;36598;46.054;11.130;2023-05-03T09:03:47;99548.53;;;25.14;28.25
50636;BME280;36598;46.054;11.130;2023-05-03T09:06:20;99544.19;;;25.25;28.73
50636;BME280;36598;46.054;11.130;2023-05-03T09:08:48;99541.75;;;25.06;29.60
50636;BME280;36598;46.054;11.130;2023-05-03T09:11:19;99540.63;;;25.35;29.32
50636;BME280;36598;46.054;11.130;2023-05-03T09:13:51;99536.66;;;25.10;28.78
50636;BME280;36598;46.054;11.130;2023-05-03T09:16:23;99536.56;;;25.05;29.28
50636;BME280;36598;46.054;11.130;2023-05-03T09:19:04;99533.63;;;24.45;29.37
50636;BME280;36598;46.054;11.130;2023-05-03T09:21:34;99533.13;;;24.46;29.56
50636;BME280;36598;46.054;11.130;2023-05-03T09:23:59;99530.03;;;24.82;28.72
50636;BME280;36598;46.054;11.130;2023-05-03T09:26:26;99523.81;;;24.78;28.98
50636;BME280;36598;46.054;11.130;2023-05-03T09:28:52;99530.00;;;25.19;28.94
50636;BME280;36598;46.054;11.130;2023-05-03T09:31:18;99516.91;;;25.27;28.95
50636;BME280;36598;46.054;11.130;2023-05-03T09:33:44;99519.06;;;25.55;27.80
50636;BME280;36598;46.054;11.130;2023-05-03T09:36:10;99515.41;;;24.89;28.13
50636;BME280;36598;46.054;11.130;2023-05-03T09:38:35;99501.25;;;25.43;28.61
50636;BME280;36598;46.054;11.130;2023-05-03T09:41:01;99509.22;;;23.43;28.77
50636;BME280;36598;46.054;11.130;2023-05-03T09:43:30;99507.75;;;24.58;28.39
50636;BME280;36598;46.054;11.130;2023-05-03T09:46:08;99509.25;;;24.21;27.72
50636;BME280;36598;46.054;11.130;2023-05-03T09:48:35;99499.41;;;24.80;27.82
50636;BME280;36598;46.054;11.130;2023-05-03T09:51:02;99500.97;;;23.86;27.58
50636;BME280;36598;46.054;11.130;2023-05-03T09:53:29;99499.31;;;24.00;27.88
50636;BME280;36598;46.054;11.130;2023-05-03T09:55:54;99495.88;;;23.44;28.24
50636;BME280;36598;46.054;11.130;2023-05-03T09:58:20;99490.75;;;24.20;27.86
50636;BME280;36598;46.054;11.130;2023-05-03T10:00:48;99480.19;;;24.95;27.64
50636;BME280;36598;46.054;11.130;2023-05-03T10:03:16;99484.19;;;25.20;28.42
50636;BME280;36598;46.054;11.130;2023-05-03T10:05:47;99477.81;;;25.48;28.02
50636;BME280;36598;46.054;11.130;2023-05-03T10:08:36;99472.28;;;25.87;25.88
50636;BME280;36598;46.054;11.130;2023-05-03T10:11:04;99478.88;;;25.51;25.73
50636;BME280;36598;46.054;11.130;2023-05-03T10:13:32;99470.72;;;23.46;27.20
50636;BME280;36598;46.054;11.130;2023-05-03T10:15:58;99467.81;;;22.94;28.60
50636;BME280;36598;46.054;11.130;2023-05-03T10:18:25;99467.00;;;23.81;27.21
50636;BME280;36598;46.054;11.130;2023-05-03T10:21:05;99459.25;;;23.29;27.97
50636;BME280;36598;46.054;11.130;2023-05-03T10:23:33;99452.97;;;24.23;27.64
50636;BME280;36598;46.054;11.130;2023-05-03T10:28:31;99450.38;;;24.57;26.84
50636;BME280;36598;46.054;11.130;2023-05-03T10:30:57;99456.75;;;24.15;26.51
50636;BME280;36598;46.054;11.130;2023-05-03T10:33:32;99446.47;;;24.12;27.56
50636;BME280;36598;46.054;11.130;2023-05-03T10:36:03;99439.25;;;23.79;26.74
50636;BME280;36598;46.054;11.130;2023-05-03T10:38:29;99438.41;;;23.99;27.21
50636;BME280;36598;46.054;11.130;2023-05-03T10:40:55;99430.09;;;24.21;26.73
50636;BME280;36598;46.054;11.130;2023-05-03T10:45:58;99428.78;;;24.54;26.79
50636;BME280;36598;46.054;11.130;2023-05-03T10:48:24;99428.41;;;24.84;27.13
50636;BME280;36598;46.054;11.130;2023-05-03T10:50:50;99423.97;;;24.29;26.96
50636;BME280;36598;46.054;11.130;2023-05-03T10:53:35;99428.53;;;23.89;26.90
50636;BME280;36598;46.054;11.130;2023-05-03T10:56:02;99417.78;;;23.15;27.29
50636;BME280;36598;46.054;11.130;2023-05-03T10:58:30;99421.69;;;22.97;26.90
50636;BME280;36598;46.054;11.130;2023-05-03T11:00:59;99419.50;;;23.59;27.09
50636;BME280;36598;46.054;11.130;2023-05-03T11:05:50;99404.53;;;23.73;28.64
50636;BME280;36598;46.054;11.130;2023-05-03T11:08:19;99402.66;;;23.96;29.10
50636;BME280;36598;46.054;11.130;2023-05-03T11:10:45;99411.53;;;23.57;28.78
50636;BME280;36598;46.054;11.130;2023-05-03T11:13:10;99403.59;;;23.56;28.86
50636;BME280;36598;46.054;11.130;2023-05-03T11:15:36;99401.16;;;23.17;28.13
50636;BME280;36598;46.054;11.130;2023-05-03T11:18:03;99399.69;;;23.01;28.26
50636;BME280;36598;46.054;11.130;2023-05-03T11:20:29;99388.75;;;23.09;27.75
50636;BME280;36598;46.054;11.130;2023-05-03T11:22:56;99391.75;;;22.85;28.82
50636;BME280;36598;46.054;11.130;2023-05-03T11:25:22;99391.63;;;23.14;28.26
50636;BME280;36598;46.054;11.130;2023-05-03T11:27:47;99389.28;;;22.31;28.57
50636;BME280;36598;46.054;11.130;2023-05-03T11:30:12;99388.56;;;23.18;28.51
50636;BME280;36598;46.054;11.130;2023-05-03T11:32:38;99378.69;;;23.08;27.96
50636;BME280;36598;46.054;11.130;2023-05-03T11:35:04;99368.53;;;23.16;28.29
50636;BME280;36598;46.054;11.130;2023-05-03T11:37:31;99372.91;;;23.17;28.21
50636;BME280;36598;46.054;11.130;2023-05-03T11:39:57;99364.25;;;23.52;28.17
50636;BME280;36598;46.054;11.130;2023-05-03T11:42:22;99355.69;;;23.98;28.39
50636;BME280;36598;46.054;11.130;2023-05-03T11:44:49;99360.50;;;23.92;28.54
50636;BME280;36598;46.054;11.130;2023-05-03T11:47:15;99360.94;;;23.28;28.71
50636;BME280;36598;46.054;11.130;2023-05-03T11:49:49;99359.78;;;23.40;27.69
50636;BME280;36598;46.054;11.130;2023-05-03T11:52:19;99346.94;;;23.65;28.00
50636;BME280;36598;46.054;11.130;2023-05-03T11:54:44;99355.78;;;23.52;29.76
50636;BME280;36598;46.054;11.130;2023-05-03T11:57:11;99337.09;;;23.86;28.95
50636;BME280;36598;46.054;11.130;2023-05-03T11:59:37;99337.66;;;23.64;29.78
50636;BME280;36598;46.054;11.130;2023-05-03T12:02:03;99338.72;;;23.98;28.83
50636;BME280;36598;46.054;11.130;2023-05-03T12:04:29;99340.47;;;23.96;28.84
50636;BME280;36598;46.054;11.130;2023-05-03T12:06:55;99338.31;;;23.80;28.39
50636;BME280;36598;46.054;11.130;2023-05-03T12:09:20;99339.81;;;24.12;29.23
50636;BME280;36598;46.054;11.130;2023-05-03T12:11:47;99336.53;;;23.82;29.99
50636;BME280;36598;46.054;11.130;2023-05-03T12:14:13;99328.38;;;24.33;29.68
50636;BME280;36598;46.054;11.130;2023-05-03T12:16:46;99328.22;;;24.05;28.69
50636;BME280;36598;46.054;11.130;2023-05-03T12:19:21;99329.38;;;23.87;28.21
50636;BME280;36598;46.054;11.130;2023-05-03T12:21:47;99335.69;;;24.08;28.74
50636;BME280;36598;46.054;11.130;2023-05-03T12:24:13;99334.56;;;23.94;30.33
50636;BME280;36598;46.054;11.130;2023-05-03T12:26:44;99326.94;;;23.68;30.29
50636;BME280;36598;46.054;11.130;2023-05-03T12:29:09;99330.16;;;23.56;29.85
50636;BME280;36598;46.054;11.130;2023-05-03T12:31:35;99334.84;;;23.64;29.73
50636;BME280;36598;46.054;11.130;2023-05-03T12:34:01;99326.53;;;23.23;30.32
50636;BME280;36598;46.054;11.130;2023-05-03T12:36:26;99326.53;;;23.81;30.60
50636;BME280;36598;46.054;11.130;2023-05-03T12:38:52;99329.91;;;23.59;30.60
50636;BME280;36598;46.054;11.130;2023-05-03T12:41:17;99330.03;;;24.08;30.11
50636;BME280;36598;46.054;11.130;2023-05-03T12:43:42;99331.66;;;23.83;29.38
50636;BME280;36598;46.054;11.130;2023-05-03T12:46:07;99326.94;;;23.68;30.12
50636;BME280;36598;46.054;11.130;2023-05-03T12:48:33;99332.78;;;23.96;30.01
50636;BME280;36598;46.054;11.130;2023-05-03T12:50:58;99322.50;;;23.62;30.97
50636;BME280;36598;46.054;11.130;2023-05-03T12:53:24;99319.38;;;23.86;30.93
50636;BME280;36598;46.054;11.130;2023-05-03T12:55:50;99318.09;;;23.87;31.54
50636;BME280;36598;46.054;11.130;2023-05-03T12:58:15;99322.13;;;24.17;30.68
50636;BME280;36598;46.054;11.130;2023-05-03T13:00:41;99321.84;;;24.58;30.35
50636;BME280;36598;46.054;11.130;2023-05-03T13:03:06;99322.19;;;24.29;30.29